Time;durP1;ratioP1;P1;durP2;ratioP2;P2;SDS_P1;SDS_P2;PMS_P1;PMS_P2;Temp;Humidity;BMP_temperature;BMP_pressure;BME280_temperature;BME280_humidity;BME280_pressure;Samples;Min_cycle;Max_cycle;Signal;HPM_P1;HPM_P2
2021/05/22 00:00:46;;;;;;;7.35;4.82;;;;;;;16.02;100.00;101338.94;4919898;29;20028;-77
2021/05/22 00:03:31;;;;;;;5.68;4.72;;;;;;;15.88;100.00;101345.56;4920173;29;20103;-77
2021/05/22 00:06:17;;;;;;;5.82;4.03;;;;;;;15.71;100.00;101340.75;4907192;29;20377;-77
2021/05/22 00:09:05;;;;;;;4.13;3.72;;;;;;;15.77;100.00;101339.72;4919418;29;20083;-76
2021/05/22 00:11:50;;;;;;;6.25;4.55;;;;;;;15.94;100.00;101337.44;4919840;29;20454;-76
2021/05/22 00:14:36;;;;;;;6.57;4.20;;;;;;;15.79;100.00;101332.63;4919883;29;20071;-76
2021/05/22 00:17:22;;;;;;;4.40;4.00;;;;;;;15.74;100.00;101330.09;4919425;29;20103;-76
2021/05/22 00:20:09;;;;;;;5.88;4.07;;;;;;;15.95;100.00;101334.75;4906863;29;20036;-77
2021/05/22 00:22:54;;;;;;;4.63;3.90;;;;;;;15.86;100.00;101337.66;4919669;29;20034;-76
2021/05/22 00:25:40;;;;;;;4.72;3.65;;;;;;;15.91;100.00;101338.41;4919576;29;20028;-76
2021/05/22 00:28:26;;;;;;;5.18;3.65;;;;;;;15.52;100.00;101330.75;4906215;29;20024;-76
2021/05/22 00:31:12;;;;;;;5.63;4.03;;;;;;;15.81;100.00;101341.34;4919306;29;20039;-77
2021/05/22 00:33:57;;;;;;;5.75;3.90;;;;;;;15.76;100.00;101332.69;4919616;29;20036;-77
2021/05/22 00:36:43;;;;;;;5.78;3.50;;;;;;;15.93;100.00;101333.06;4919301;29;20035;-76
2021/05/22 00:39:29;;;;;;;4.82;3.17;;;;;;;15.65;100.00;101340.06;4906231;29;20032;-76
2021/05/22 00:42:15;;;;;;;4.53;3.53;;;;;;;15.70;100.00;101336.38;4906353;29;20066;-76
2021/05/22 00:45:03;;;;;;;6.75;3.30;;;;;;;15.68;100.00;101342.63;4906235;29;20036;-76
2021/05/22 00:47:52;;;;;;;5.88;3.80;;;;;;;15.64;100.00;101347.13;4919008;29;20032;-76
2021/05/22 00:50:41;;;;;;;5.35;3.65;;;;;;;15.78;100.00;101341.44;4919635;29;20032;-76
2021/05/22 00:53:27;;;;;;;4.57;3.83;;;;;;;15.98;100.00;101349.66;4905854;29;20024;-76
2021/05/22 00:56:13;;;;;;;3.90;3.55;;;;;;;15.96;100.00;101348.84;4919305;29;20118;-76
2021/05/22 00:58:59;;;;;;;3.92;3.60;;;;;;;15.76;100.00;101357.34;4918474;29;20068;-76
2021/05/22 01:01:45;;;;;;;6.40;3.90;;;;;;;15.77;100.00;101347.63;4919019;29;20032;-76
2021/05/22 01:04:31;;;;;;;4.53;3.65;;;;;;;15.77;100.00;101347.63;4918502;29;20111;-76
2021/05/22 01:07:18;;;;;;;8.30;4.00;;;;;;;15.82;100.00;101343.94;4918513;29;20123;-76
2021/05/22 01:10:06;;;;;;;3.90;3.22;;;;;;;15.96;100.00;101343.56;4918564;29;20039;-76
2021/05/22 01:12:55;;;;;;;6.18;3.70;;;;;;;15.91;100.00;101338.41;4919459;29;20016;-76
2021/05/22 01:15:44;;;;;;;4.57;3.80;;;;;;;15.94;100.00;101340.97;4918903;29;20032;-76
2021/05/22 01:18:31;;;;;;;4.03;3.63;;;;;;;15.60;100.00;101345.50;4918642;29;20036;-75
2021/05/22 01:21:18;;;;;;;5.95;3.50;;;;;;;15.86;100.00;101342.94;4918465;29;20035;-76
2021/05/22 01:24:09;;;;;;;6.57;3.67;;;;;;;15.96;100.00;101344.44;4918673;29;20107;-76
2021/05/22 01:26:55;;;;;;;4.20;3.63;;;;;;;15.97;100.00;101340.88;4905387;29;20374;-75
2021/05/22 01:29:42;;;;;;;4.78;4.03;;;;;;;16.04;100.00;101337.13;4917668;29;20040;-75
2021/05/22 01:32:28;;;;;;;4.72;4.22;;;;;;;15.70;100.00;101349.59;4917846;29;20032;-75
2021/05/22 01:35:16;;;;;;;6.78;3.70;;;;;;;15.72;100.00;101353.06;4917967;29;20099;-77
2021/05/22 01:38:01;;;;;;;5.43;3.70;;;;;;;15.68;100.00;101347.91;4905716;29;20063;-77
2021/05/22 01:40:49;;;;;;;6.18;3.80;;;;;;;15.50;100.00;101353.69;4917822;29;20524;-77
2021/05/22 01:43:41;;;;;;;6.70;4.25;;;;;;;15.67;100.00;101357.59;4917847;29;20028;-76
2021/05/22 01:46:29;;;;;;;6.88;4.15;;;;;;;15.73;100.00;101354.78;4917879;29;20032;-77
2021/05/22 01:49:17;;;;;;;5.68;4.05;;;;;;;15.45;100.00;101347.66;4918039;29;20042;-76
2021/05/22 01:52:05;;;;;;;5.95;4.13;;;;;;;15.22;100.00;101350.03;4918302;29;20504;-76
2021/05/22 01:54:52;;;;;;;4.57;3.58;;;;;;;15.42;100.00;101355.66;4918276;29;20425;-76
2021/05/22 01:57:39;;;;;;;5.72;3.88;;;;;;;15.57;100.00;101345.56;4918153;29;20512;-76
2021/05/22 02:00:26;;;;;;;5.22;3.63;;;;;;;15.69;100.00;101345.22;4918251;29;20091;-76
2021/05/22 02:03:42;;;;;;;6.38;3.55;;;;;;;15.47;100.00;101337.94;4917094;29;20055;-76
2021/05/22 02:06:33;;;;;;;5.00;3.42;;;;;;;15.47;100.00;101340.59;4905617;29;20039;-76
2021/05/22 02:09:20;;;;;;;4.28;3.20;;;;;;;15.56;100.00;101335.91;4917655;29;20055;-77
2021/05/22 02:12:08;;;;;;;3.42;3.13;;;;;;;15.80;100.00;101334.34;4892297;29;20039;-77
2021/05/22 02:14:55;;;;;;;7.93;4.05;;;;;;;15.73;100.00;101335.41;4917748;29;20032;-76
2021/05/22 02:17:45;;;;;;;4.28;3.50;;;;;;;15.64;100.00;101333.94;4917685;29;20043;-76
2021/05/22 02:20:32;;;;;;;6.40;3.42;;;;;;;15.48;100.00;101329.09;4917726;29;20095;-76
2021/05/22 02:23:19;;;;;;;4.85;3.65;;;;;;;15.53;100.00;101329.84;4904494;29;20099;-76
2021/05/22 02:26:07;;;;;;;3.80;3.35;;;;;;;15.46;100.00;101330.91;4917939;29;20032;-76
2021/05/22 02:28:54;;;;;;;7.18;3.72;;;;;;;15.34;100.00;101323.31;4917491;29;20032;-76
2021/05/22 02:31:42;;;;;;;4.32;3.67;;;;;;;15.52;100.00;101336.03;4905165;29;20115;-76
2021/05/22 02:34:31;;;;;;;4.63;3.92;;;;;;;15.67;100.00;101335.63;4918122;29;20372;-77
2021/05/22 02:37:20;;;;;;;4.20;3.53;;;;;;;15.43;100.00;101331.84;4904858;29;20028;-76
2021/05/22 02:40:15;;;;;;;7.97;4.57;;;;;;;15.50;100.00;101343.13;4928733;29;20032;-76
2021/05/22 02:43:05;;;;;;;6.30;4.78;;;;;;;15.24;100.00;101346.44;4933139;29;20028;-75
2021/05/22 02:45:51;;;;;;;6.05;4.28;;;;;;;15.12;100.00;101345.91;4930786;29;20031;-76
2021/05/22 02:48:38;;;;;;;4.18;3.78;;;;;;;15.18;100.00;101346.59;4922096;29;20028;-77
2021/05/22 02:51:25;;;;;;;5.35;3.60;;;;;;;15.13;100.00;101348.50;4907892;29;20031;-77
2021/05/22 02:54:11;;;;;;;6.18;3.67;;;;;;;15.00;100.00;101352.38;4921378;29;20477;-76
2021/05/22 02:56:57;;;;;;;8.23;4.07;;;;;;;15.08;100.00;101358.31;4920993;29;20369;-76
2021/05/22 02:59:45;;;;;;;3.72;3.40;;;;;;;15.19;100.00;101353.59;4908153;29;20035;-76
2021/05/22 03:02:31;;;;;;;5.00;3.40;;;;;;;15.32;100.00;101355.03;4921320;29;20027;-76
2021/05/22 03:05:17;;;;;;;4.68;3.50;;;;;;;15.32;100.00;101362.06;4907917;29;20099;-75
2021/05/22 03:08:03;;;;;;;3.90;3.47;;;;;;;15.37;100.00;101363.72;4920915;29;20060;-76
2021/05/22 03:10:49;;;;;;;4.28;3.85;;;;;;;15.34;100.00;101378.75;4920528;29;20032;-76
2021/05/22 03:13:35;;;;;;;4.28;3.88;;;;;;;15.34;100.00;101381.41;4920553;29;20032;-75
2021/05/22 03:16:21;;;;;;;4.18;3.78;;;;;;;15.56;100.00;101375.53;4920729;29;20381;-75
2021/05/22 03:19:07;;;;;;;5.05;4.03;;;;;;;15.48;100.00;101374.88;4920903;29;20032;-76
2021/05/22 03:21:52;;;;;;;6.63;4.00;;;;;;;15.57;100.00;101381.66;4907702;29;20354;-76
2021/05/22 03:24:38;;;;;;;4.25;3.85;;;;;;;15.52;100.00;101370.38;4921253;29;20024;-76
2021/05/22 03:27:24;;;;;;;6.80;3.78;;;;;;;15.58;100.00;101378.09;4920709;29;20432;-76
2021/05/22 03:30:10;;;;;;;3.97;3.60;;;;;;;15.35;100.00;101378.72;4920910;29;20032;-76
2021/05/22 03:32:56;;;;;;;5.82;3.40;;;;;;;15.71;100.00;101379.53;4920227;29;20024;-76
2021/05/22 03:35:42;;;;;;;4.32;3.85;;;;;;;15.67;100.00;101380.53;4920336;29;20064;-76
2021/05/22 03:38:28;;;;;;;4.82;3.85;;;;;;;15.53;100.00;101375.63;4920451;29;20036;-76
2021/05/22 03:41:14;;;;;;;5.75;3.72;;;;;;;15.59;100.00;101382.50;4920086;29;20091;-76
2021/05/22 03:43:59;;;;;;;7.15;4.28;;;;;;;15.79;100.00;101377.53;4921346;29;20351;-76
2021/05/22 03:46:45;;;;;;;4.63;4.05;;;;;;;15.88;100.00;101378.16;4920000;29;20020;-76
2021/05/22 03:49:31;;;;;;;4.65;3.80;;;;;;;15.81;100.00;101383.63;4920927;29;20028;-76
2021/05/22 03:52:17;;;;;;;6.22;3.83;;;;;;;16.03;100.00;101382.97;4919630;29;20040;-76
2021/05/22 03:55:04;;;;;;;4.28;3.33;;;;;;;16.07;100.00;101381.97;4920610;29;20055;-76
2021/05/22 03:57:50;;;;;;;5.68;4.45;;;;;;;16.01;100.00;101379.53;4920240;29;20032;-76
2021/05/22 04:00:36;;;;;;;7.60;3.90;;;;;;;16.18;100.00;101377.25;4907320;29;20036;-75
2021/05/22 04:03:23;;;;;;;5.30;3.50;;;;;;;16.33;100.00;101375.91;4907033;29;20028;-76
2021/05/22 04:06:09;;;;;;;4.18;3.72;;;;;;;16.41;100.00;101373.94;4919781;29;20036;-76
2021/05/22 04:08:54;;;;;;;4.28;3.63;;;;;;;16.45;100.00;101380.84;4919550;29;20048;-77
2021/05/22 04:11:40;;;;;;;4.03;3.45;;;;;;;16.33;100.00;101370.63;4919697;29;20119;-77
2021/05/22 04:14:26;;;;;;;3.30;2.97;;;;;;;16.49;100.00;101377.19;4907260;29;20115;-77
2021/05/22 04:17:12;;;;;;;4.75;3.20;;;;;;;16.60;100.00;101378.59;4919347;29;20461;-77
2021/05/22 04:19:58;;;;;;;3.30;2.63;;;;;;;16.47;100.00;101382.53;4920019;29;20044;-77
2021/05/22 04:22:43;;;;;;;5.68;3.10;;;;;;;16.83;100.00;101381.38;4919169;29;20064;-77
2021/05/22 04:25:29;;;;;;;6.05;2.70;;;;;;;17.09;100.00;101372.56;4920069;29;20453;-77
2021/05/22 04:28:15;;;;;;;4.88;3.00;;;;;;;17.27;100.00;101380.75;4919286;29;20051;-76
2021/05/22 04:31:01;;;;;;;5.35;3.10;;;;;;;17.27;100.00;101385.19;4919466;29;20035;-76
2021/05/22 04:33:46;;;;;;;5.30;2.95;;;;;;;17.38;100.00;101398.94;4918927;29;20131;-76
2021/05/22 04:36:32;;;;;;;6.85;3.67;;;;;;;17.07;100.00;101408.81;4919289;29;20410;-76
2021/05/22 04:39:18;;;;;;;5.68;3.40;;;;;;;17.36;100.00;101409.56;4919168;29;20020;-77
2021/05/22 04:42:04;;;;;;;5.35;3.20;;;;;;;17.35;100.00;101404.31;4919179;29;20378;-78
2021/05/22 04:44:50;;;;;;;10.20;3.03;;;;;;;16.62;100.00;101408.53;4906668;29;20078;-77
2021/05/22 04:47:38;;;;;;;7.88;3.35;;;;;;;16.72;100.00;101409.09;4919478;29;20115;-77
2021/05/22 04:50:27;;;;;;;6.00;3.58;;;;;;;17.35;100.00;101405.19;4919362;29;20039;-77
2021/05/22 04:53:13;;;;;;;4.05;3.13;;;;;;;17.36;100.00;101421.97;4905853;29;20103;-77
2021/05/22 04:55:59;;;;;;;6.13;3.38;;;;;;;17.95;100.00;101423.41;4918809;29;20035;-76
2021/05/22 04:58:45;;;;;;;4.57;3.97;;;;;;;17.90;100.00;101426.22;4918657;29;20043;-76
2021/05/22 05:01:31;;;;;;;4.53;3.00;;;;;;;17.96;100.00;101419.81;4918750;29;20371;-77
2021/05/22 05:04:17;;;;;;;4.78;3.50;;;;;;;18.12;100.00;101437.78;4918614;29;20040;-76
2021/05/22 05:07:04;;;;;;;4.97;3.78;;;;;;;18.53;100.00;101437.09;4918669;29;20155;-77
2021/05/22 05:09:51;;;;;;;5.22;4.05;;;;;;;19.03;100.00;101443.94;4918591;29;20048;-76
2021/05/22 05:12:37;;;;;;;3.67;2.88;;;;;;;18.59;100.00;101436.88;4919068;29;20060;-76
2021/05/22 05:15:23;;;;;;;3.33;3.03;;;;;;;19.04;100.00;101447.44;4905725;29;20430;-77
2021/05/22 05:18:10;;;;;;;3.53;2.88;;;;;;;19.26;100.00;101444.81;4918674;29;20051;-77
2021/05/22 05:20:56;;;;;;;6.38;3.03;;;;;;;19.07;100.00;101442.03;4918098;29;20043;-77
2021/05/22 05:23:42;;;;;;;5.25;2.97;;;;;;;19.42;100.00;101443.25;4918881;29;20111;-77
2021/05/22 05:26:28;;;;;;;4.65;3.00;;;;;;;19.49;100.00;101444.72;4918455;29;20095;-77
2021/05/22 05:29:14;;;;;;;3.72;2.60;;;;;;;19.52;100.00;101445.44;4918156;29;20032;-77
2021/05/22 05:32:00;;;;;;;3.13;2.65;;;;;;;19.51;100.00;101445.50;4918175;29;20362;-77
2021/05/22 05:34:46;;;;;;;4.95;2.67;;;;;;;19.98;100.00;101436.34;4918703;29;20140;-77
2021/05/22 05:37:32;;;;;;;2.90;2.50;;;;;;;20.18;100.00;101447.88;4905759;29;20024;-77
2021/05/22 05:40:20;;;;;;;3.38;2.22;;;;;;;19.11;100.00;101448.94;4905280;29;20346;-78
2021/05/22 05:43:10;;;;;;;3.00;2.13;;;;;;;19.14;100.00;101454.13;4906600;29;20036;-78
2021/05/22 05:45:55;;;;;;;4.55;2.53;;;;;;;19.59;100.00;101460.22;4918358;29;20120;-77
2021/05/22 05:48:41;;;;;;;6.35;3.95;;;;;;;19.58;100.00;101465.59;4918191;29;20024;-77
2021/05/22 05:51:27;;;;;;;7.75;3.40;;;;;;;19.73;100.00;101473.78;4918014;29;20036;-78
2021/05/22 05:54:13;;;;;;;7.47;3.55;;;;;;;19.61;100.00;101470.78;4917333;29;20052;-77
2021/05/22 05:56:58;;;;;;;2.63;2.40;;;;;;;19.56;100.00;101472.78;4918677;29;20023;-77
2021/05/22 05:59:44;;;;;;;7.03;2.90;;;;;;;20.19;100.00;101470.00;4918004;29;20457;-76
2021/05/22 06:02:30;;;;;;;6.22;2.20;;;;;;;19.77;100.00;101478.03;4918182;29;20538;-77
2021/05/22 06:05:16;;;;;;;3.33;2.55;;;;;;;20.12;100.00;101469.41;4904893;29;20529;-78
2021/05/22 06:08:02;;;;;;;3.90;2.20;;;;;;;20.16;100.00;101464.81;4917324;29;20059;-78
2021/05/22 06:10:49;;;;;;;6.70;2.35;;;;;;;20.42;100.00;101470.69;4917868;29;20126;-77
2021/05/22 06:13:35;;;;;;;3.53;2.72;;;;;;;20.59;100.00;101470.78;4917952;29;20506;-78
2021/05/22 06:16:27;;;;;;;2.33;2.08;;;;;;;20.39;100.00;101461.97;4917618;29;20032;-77
2021/05/22 06:19:13;;;;;;;5.18;2.40;;;;;;;20.60;100.00;101461.84;4919157;29;20315;-77
2021/05/22 06:21:59;;;;;;;3.35;2.33;;;;;;;19.82;100.00;101454.78;4921516;29;20043;-77
2021/05/22 06:24:46;;;;;;;5.95;2.60;;;;;;;20.13;100.00;101455.16;4908754;29;20071;-76
2021/05/22 06:27:32;;;;;;;3.05;2.65;;;;;;;20.55;100.00;101458.53;4908768;29;20063;-76
2021/05/22 06:30:18;;;;;;;5.80;3.88;;;;;;;20.54;100.00;101451.47;4908880;29;20024;-76
2021/05/22 06:33:04;;;;;;;16.42;4.75;;;;;;;21.01;100.00;101455.44;4921412;29;20025;-78
2021/05/22 06:35:50;;;;;;;11.02;4.07;;;;;;;21.55;100.00;101452.72;4920704;29;20042;-77
2021/05/22 06:38:36;;;;;;;5.38;3.65;;;;;;;21.11;100.00;101448.75;4908655;29;20032;-76
2021/05/22 06:41:21;;;;;;;5.63;3.00;;;;;;;20.85;100.00;101446.44;4920691;29;20028;-76
2021/05/22 06:44:11;;;;;;;4.28;2.90;;;;;;;20.93;100.00;101438.97;4921519;29;20024;-76
2021/05/22 06:46:58;;;;;;;6.35;2.50;;;;;;;21.43;100.00;101439.13;4921784;29;20035;-77
2021/05/22 06:49:43;;;;;;;4.55;2.33;;;;;;;20.46;100.00;101450.13;4921365;29;20378;-77
2021/05/22 06:52:29;;;;;;;6.32;3.20;;;;;;;20.92;100.00;101447.91;4920985;29;20026;-77
2021/05/22 06:55:15;;;;;;;8.88;3.38;;;;;;;21.71;100.00;101442.13;4921381;29;20488;-77
2021/05/22 06:58:01;;;;;;;8.55;2.67;;;;;;;21.42;100.00;101446.25;4908217;29;20032;-76
2021/05/22 07:00:47;;;;;;;4.55;2.50;;;;;;;22.07;100.00;101438.38;4908965;29;20059;-77
2021/05/22 07:03:32;;;;;;;3.47;2.50;;;;;;;22.45;100.00;101447.00;4920965;29;20525;-77
2021/05/22 07:06:19;;;;;;;5.65;2.40;;;;;;;22.24;100.00;101441.03;4924074;29;20020;-76
2021/05/22 07:09:05;;;;;;;6.43;2.30;;;;;;;20.52;100.00;101445.38;4942292;29;20052;-77
2021/05/22 07:11:50;;;;;;;2.78;2.40;;;;;;;21.80;100.00;101442.53;4941280;29;20040;-77
2021/05/22 07:14:37;;;;;;;7.55;2.80;;;;;;;22.22;100.00;101442.91;4921388;29;20115;-77
2021/05/22 07:17:22;;;;;;;2.97;2.40;;;;;;;21.76;100.00;101442.75;4925947;29;20047;-75
2021/05/22 07:20:09;;;;;;;3.40;2.67;;;;;;;22.29;100.00;101451.44;4932533;29;20040;-75
2021/05/22 07:22:55;;;;;;;5.65;2.60;;;;;;;22.43;100.00;101454.25;4932755;29;20430;-76
2021/05/22 07:25:41;;;;;;;4.05;2.70;;;;;;;22.46;100.00;101456.72;4921124;29;20032;-77
2021/05/22 07:28:27;;;;;;;2.72;2.50;;;;;;;23.30;100.00;101465.31;4920677;29;20134;-77
2021/05/22 07:31:12;;;;;;;7.07;3.05;;;;;;;23.40;100.00;101450.47;4906939;29;20024;-78
2021/05/22 07:33:59;;;;;;;2.20;1.80;;;;;;;23.23;100.00;101456.81;4920153;29;20029;-76
2021/05/22 07:36:44;;;;;;;4.18;2.10;;;;;;;23.97;100.00;101447.03;4907835;29;20040;-77
2021/05/22 07:39:30;;;;;;;3.47;2.20;;;;;;;23.59;100.00;101453.81;4920223;29;20040;-77
2021/05/22 07:42:16;;;;;;;3.45;1.95;;;;;;;23.87;100.00;101447.63;4920163;29;20024;-77
2021/05/22 07:45:04;;;;;;;3.10;2.30;;;;;;;24.09;100.00;101450.75;4920358;29;20034;-77
2021/05/22 07:47:50;;;;;;;4.53;2.08;;;;;;;24.58;100.00;101442.22;4919848;29;20067;-77
2021/05/22 07:50:36;;;;;;;5.10;2.10;;;;;;;23.42;100.00;101439.69;4919483;29;20030;-77
2021/05/22 07:53:22;;;;;;;3.33;2.30;;;;;;;23.10;100.00;101434.38;4919674;29;20074;-77
2021/05/22 07:56:08;;;;;;;8.90;2.40;;;;;;;23.67;100.00;101424.78;4907678;29;20050;-78
2021/05/22 07:58:54;;;;;;;3.30;2.10;;;;;;;24.12;100.00;101423.78;4919748;29;20039;-78
2021/05/22 08:01:39;;;;;;;4.35;2.00;;;;;;;24.39;100.00;101419.38;4919730;29;20529;-76
2021/05/22 08:04:25;;;;;;;4.40;2.03;;;;;;;24.90;100.00;101421.41;4920274;29;20028;-76
2021/05/22 08:07:11;;;;;;;10.25;2.45;;;;;;;24.83;100.00;101429.00;4919716;29;20477;-77
2021/05/22 08:09:57;;;;;;;5.55;2.40;;;;;;;24.88;100.00;101431.38;4919682;29;20044;-77
2021/05/22 08:12:43;;;;;;;3.88;2.20;;;;;;;24.43;100.00;101420.91;4920102;29;20131;-77
2021/05/22 08:15:29;;;;;;;4.60;2.63;;;;;;;25.01;100.00;101426.94;4920060;29;20409;-77
2021/05/22 08:18:15;;;;;;;2.05;1.85;;;;;;;24.50;100.00;101432.94;4919854;29;20028;-77
2021/05/22 08:21:01;;;;;;;2.67;1.90;;;;;;;24.77;100.00;101436.56;4906907;29;20078;-77
2021/05/22 08:23:46;;;;;;;2.35;1.95;;;;;;;24.70;100.00;101435.25;4919307;29;20060;-77
2021/05/22 08:26:32;;;;;;;2.33;1.90;;;;;;;24.73;99.47;101441.28;4906856;29;20502;-77
2021/05/22 08:29:18;;;;;;;3.10;2.00;;;;;;;25.01;97.84;101435.84;4906678;29;20118;-77
2021/05/22 08:32:04;;;;;;;2.85;2.17;;;;;;;25.22;97.80;101431.75;4919136;29;20027;-78
2021/05/22 08:34:50;;;;;;;2.13;1.92;;;;;;;24.86;98.56;101436.84;4919315;29;20024;-76
2021/05/22 08:37:36;;;;;;;4.25;2.33;;;;;;;25.05;93.16;101437.38;4919597;29;20028;-78
2021/05/22 08:40:26;;;;;;;3.22;1.70;;;;;;;24.74;93.93;101436.75;4905833;29;20063;-76
2021/05/22 08:43:12;;;;;;;3.15;1.60;;;;;;;24.75;89.41;101431.31;4919201;29;20054;-77
2021/05/22 08:45:58;;;;;;;2.20;1.75;;;;;;;24.98;87.56;101429.81;4919108;29;20028;-77
2021/05/22 08:48:46;;;;;;;3.88;1.90;;;;;;;25.45;81.97;101424.84;4906961;29;20377;-77
2021/05/22 08:51:32;;;;;;;1.80;1.70;;;;;;;25.41;88.75;101426.03;4906553;29;20028;-77
2021/05/22 08:54:18;;;;;;;2.08;1.70;;;;;;;25.29;90.81;101432.22;4919818;29;20441;-78
2021/05/22 08:57:04;;;;;;;3.35;1.70;;;;;;;25.15;90.62;101427.75;4919026;29;20032;-78
2021/05/22 08:59:50;;;;;;;1.98;1.77;;;;;;;25.13;87.59;101416.28;4905908;29;20032;-78
2021/05/22 09:02:36;;;;;;;4.40;1.50;;;;;;;24.73;90.54;101422.53;4918244;29;20043;-77
2021/05/22 09:05:27;;;;;;;1.60;1.50;;;;;;;25.70;86.19;101419.53;4919028;29;20024;-77
2021/05/22 09:08:15;;;;;;;1.60;1.50;;;;;;;25.55;85.19;101409.88;4918551;29;20127;-77
2021/05/22 09:11:04;;;;;;;2.95;1.63;;;;;;;25.17;85.53;101411.56;4905251;29;20087;-77
2021/05/22 09:13:51;;;;;;;2.17;1.50;;;;;;;24.75;86.16;101412.53;4919027;29;20440;-76
2021/05/22 09:16:37;;;;;;;1.60;1.50;;;;;;;25.18;86.99;101406.09;4918358;29;20035;-76
2021/05/22 09:19:29;;;;;;;2.35;1.70;;;;;;;24.88;86.83;101408.13;4905993;29;20464;-76
2021/05/22 09:22:20;;;;;;;1.70;1.60;;;;;;;25.18;86.65;101400.72;4918388;29;20092;-77
2021/05/22 09:25:07;;;;;;;2.72;1.70;;;;;;;25.47;87.34;101401.47;4918653;29;20028;-77
2021/05/22 09:27:54;;;;;;;1.58;1.48;;;;;;;24.78;84.97;101393.59;4918043;29;20036;-77
2021/05/22 09:30:41;;;;;;;1.65;1.55;;;;;;;25.31;84.32;101392.75;4918624;29;20414;-77
2021/05/22 09:33:32;;;;;;;4.20;1.63;;;;;;;25.62;87.10;101397.72;4918335;29;20163;-77
2021/05/22 09:36:18;;;;;;;2.42;1.75;;;;;;;25.64;84.06;101393.97;4918639;29;20020;-77
2021/05/22 09:39:04;;;;;;;3.60;1.83;;;;;;;25.44;86.12;101394.47;4905432;29;20433;-77
2021/05/22 09:41:50;;;;;;;2.10;1.42;;;;;;;25.24;85.69;101389.56;4917557;29;20060;-77
2021/05/22 09:44:36;;;;;;;2.42;1.42;;;;;;;25.05;86.93;101390.91;4918308;29;20373;-76
2021/05/22 09:47:22;;;;;;;1.73;1.60;;;;;;;24.73;87.07;101392.16;4918053;29;20079;-76
2021/05/22 09:50:08;;;;;;;2.13;1.50;;;;;;;25.34;87.32;101385.34;4918647;29;20024;-77
2021/05/22 09:52:53;;;;;;;2.88;2.47;;;;;;;25.33;87.76;101389.00;4917775;29;20031;-77
2021/05/22 09:55:39;;;;;;;2.88;1.80;;;;;;;25.70;83.02;101390.00;4917022;29;20116;-76
2021/05/22 09:58:32;;;;;;;3.15;1.60;;;;;;;25.71;84.68;101386.34;4917837;29;20114;-77
2021/05/22 10:01:22;;;;;;;2.35;2.00;;;;;;;25.31;91.04;101387.38;4918353;29;20024;-76
2021/05/22 10:04:19;;;;;;;2.67;1.73;;;;;;;25.25;90.74;101374.34;4917527;29;20036;-76
2021/05/22 10:07:05;;;;;;;2.10;1.70;;;;;;;25.73;88.80;101377.25;4917806;29;20056;-77
2021/05/22 10:10:00;;;;;;;1.70;1.60;;;;;;;25.56;89.03;101369.47;4905035;29;20099;-77
2021/05/22 10:12:46;;;;;;;2.35;1.77;;;;;;;26.08;84.64;101372.09;4917679;29;20036;-76
2021/05/22 10:15:32;;;;;;;1.70;1.60;;;;;;;25.63;85.26;101361.88;4917810;29;20038;-77
2021/05/22 10:18:20;;;;;;;2.30;1.90;;;;;;;25.91;88.21;101365.19;4917914;29;20461;-77
2021/05/22 10:21:06;;;;;;;1.90;1.70;;;;;;;25.34;87.79;101357.63;4918309;29;20063;-78
2021/05/22 10:23:54;;;;;;;1.80;1.70;;;;;;;26.02;84.88;101356.41;4917434;29;20028;-77
2021/05/22 10:26:41;;;;;;;2.42;1.77;;;;;;;25.49;89.50;101343.19;4917901;29;20066;-77
2021/05/22 10:29:29;;;;;;;3.38;1.70;;;;;;;25.96;86.37;101336.22;4904316;29;20024;-77
2021/05/22 10:32:26;;;;;;;1.63;1.52;;;;;;;26.08;85.48;101334.50;4917999;29;20028;-77
2021/05/22 10:35:24;;;;;;;1.40;1.30;;;;;;;25.85;81.28;101335.25;4917133;29;20051;-77
2021/05/22 10:38:30;;;;;;;2.47;1.80;;;;;;;25.47;85.30;101331.72;4917819;29;20104;-77
2021/05/22 10:41:17;;;;;;;1.90;1.80;;;;;;;25.70;87.92;101329.13;4917376;29;20028;-77
2021/05/22 10:44:06;;;;;;;3.13;1.70;;;;;;;25.27;87.55;101327.66;4917419;29;20032;-77
2021/05/22 10:47:12;;;;;;;2.38;1.65;;;;;;;25.37;87.66;101325.25;4917150;29;20028;-77
2021/05/22 10:50:01;;;;;;;2.00;1.50;;;;;;;25.17;81.05;101320.34;4917507;29;20039;-76
2021/05/22 10:52:46;;;;;;;2.17;1.67;;;;;;;25.71;83.79;101314.72;4904538;29;20449;-77
2021/05/22 10:55:35;;;;;;;2.08;1.63;;;;;;;25.78;82.23;101315.16;4917770;29;20066;-77
2021/05/22 10:58:21;;;;;;;2.35;1.50;;;;;;;26.26;78.79;101314.34;4904266;29;20027;-77
2021/05/22 11:01:59;;;;;;;2.00;1.70;;;;;;;26.34;74.41;101314.66;4917485;29;20028;-77
2021/05/22 11:04:37;;;;;;;2.65;1.40;;;;;;;26.67;68.92;101315.75;4918021;29;20354;-78
2021/05/22 11:07:23;;;;;;;3.33;1.48;;;;;;;26.89;71.90;101298.84;4920290;29;20135;-78
2021/05/22 11:10:09;;;;;;;3.72;1.52;;;;;;;26.73;69.83;101300.97;4921337;29;20474;-77
2021/05/22 11:12:55;;;;;;;1.70;1.60;;;;;;;26.78;71.99;101299.66;4921073;29;20040;-76
2021/05/22 11:16:07;;;;;;;3.00;1.52;;;;;;;26.25;76.48;101289.31;4920979;29;20038;-76
2021/05/22 11:19:02;;;;;;;3.50;1.50;;;;;;;26.31;72.68;101285.31;4921202;29;20047;-77
2021/05/22 11:22:15;;;;;;;1.95;1.60;;;;;;;25.98;75.22;101280.59;4921066;29;20435;-76
2021/05/22 11:25:01;;;;;;;1.40;1.30;;;;;;;26.72;72.63;101272.38;4908098;29;20116;-77
2021/05/22 11:27:47;;;;;;;1.67;1.40;;;;;;;26.14;71.60;101277.63;4907728;29;20040;-77
2021/05/22 11:30:33;;;;;;;3.42;1.50;;;;;;;26.40;68.45;101266.69;4921386;29;20081;-77
2021/05/22 11:33:22;;;;;;;1.23;1.13;;;;;;;26.18;72.48;101265.69;4907444;29;20020;-76
2021/05/22 11:36:12;;;;;;;3.08;1.40;;;;;;;25.72;72.62;101259.22;4920463;29;20110;-76
2021/05/22 11:38:58;;;;;;;2.05;1.67;;;;;;;25.92;73.45;101255.97;4920766;29;20028;-77
2021/05/22 11:41:44;;;;;;;2.08;1.55;;;;;;;26.26;73.01;101248.03;4907378;29;20054;-77
2021/05/22 11:44:30;;;;;;;1.73;1.50;;;;;;;26.33;72.34;101241.22;4920645;29;20046;-77
2021/05/22 11:47:16;;;;;;;1.80;1.60;;;;;;;26.36;70.06;101242.84;4919985;29;20115;-77
2021/05/22 11:50:04;;;;;;;3.75;1.50;;;;;;;27.00;64.90;101237.00;4921171;29;20038;-78
2021/05/22 11:52:51;;;;;;;1.73;1.40;;;;;;;26.36;66.29;101232.09;4919684;29;20039;-77
2021/05/22 11:55:36;;;;;;;2.08;1.40;;;;;;;26.28;64.44;101223.75;4919977;29;20114;-77
2021/05/22 11:58:23;;;;;;;2.33;1.35;;;;;;;25.93;67.88;101229.00;4919089;29;20074;-77
2021/05/22 12:01:19;;;;;;;2.50;1.35;;;;;;;26.55;66.90;101219.84;4920503;29;20115;-77
2021/05/22 12:04:10;;;;;;;1.40;1.30;;;;;;;26.44;68.17;101233.22;4919940;29;20119;-77
2021/05/22 12:06:56;;;;;;;2.60;1.40;;;;;;;27.45;62.46;101222.69;4906643;29;20035;-77
2021/05/22 12:09:42;;;;;;;2.47;1.30;;;;;;;26.77;63.53;101213.72;4920069;29;20422;-77
2021/05/22 12:12:29;;;;;;;1.92;1.30;;;;;;;26.76;62.68;101209.34;4920286;29;20039;-77
2021/05/22 12:15:26;;;;;;;2.85;1.40;;;;;;;27.20;60.32;101204.06;4919729;29;20040;-77
2021/05/22 12:18:19;;;;;;;1.17;1.08;;;;;;;27.39;54.97;101201.63;4919184;29;20032;-77
2021/05/22 12:21:05;;;;;;;1.65;1.08;;;;;;;27.22;53.15;101191.34;4919354;29;20113;-78
2021/05/22 12:23:52;;;;;;;1.30;1.20;;;;;;;26.42;56.43;101191.31;4919471;29;20373;-77
2021/05/22 12:26:39;;;;;;;1.70;1.45;;;;;;;26.60;58.04;101182.75;4919943;29;20115;-77
2021/05/22 12:29:30;;;;;;;1.45;1.13;;;;;;;27.20;56.05;101177.16;4919290;29;20410;-76
2021/05/22 12:32:16;;;;;;;1.40;1.25;;;;;;;26.99;54.36;101181.50;4918997;29;20035;-77
2021/05/22 12:35:04;;;;;;;1.90;1.48;;;;;;;26.84;54.83;101177.34;4919474;29;20032;-77
2021/05/22 12:37:51;;;;;;;2.97;1.25;;;;;;;27.25;55.52;101164.22;4934989;29;20035;-76
2021/05/22 12:40:48;;;;;;;1.40;1.30;;;;;;;26.88;53.43;101159.97;4936706;29;20012;-76
2021/05/22 12:43:46;;;;;;;2.10;1.30;;;;;;;26.85;58.71;101160.22;4935723;29;20099;-76
2021/05/22 12:46:33;;;;;;;1.73;1.35;;;;;;;27.15;54.83;101155.09;4920868;29;20032;-77
2021/05/22 12:49:19;;;;;;;1.25;1.15;;;;;;;26.75;56.89;101154.69;4920128;29;20037;-77
2021/05/22 12:52:08;;;;;;;3.53;1.40;;;;;;;27.38;56.00;101148.78;4927315;29;20043;-76